createdAt,value
2017-07-08T09:06:13.494Z,7772
2017-07-08T09:07:13.197Z,7748
2017-07-08T09:08:12.879Z,7736
2017-07-08T09:09:12.883Z,7708
2017-07-08T09:10:14.115Z,7672
2017-07-08T09:11:12.901Z,7632
2017-07-08T09:12:13.240Z,7584
2017-07-08T09:13:12.936Z,7552
2017-07-08T09:14:12.292Z,7512
2017-07-08T09:15:14.022Z,7460
2017-07-08T09:16:13.272Z,7416
2017-07-08T09:17:12.960Z,7396
2017-07-08T09:18:12.655Z,7372
2017-07-08T09:19:12.664Z,7360
2017-07-08T09:20:14.514Z,6908
2017-07-08T09:21:13.290Z,6624
2017-07-08T09:22:12.689Z,7388
2017-07-08T09:23:12.372Z,7064
2017-07-08T09:24:13.338Z,7084
2017-07-08T09:25:14.146Z,7180
2017-07-08T09:26:13.366Z,7364
2017-07-08T09:27:13.371Z,7312
2017-07-08T09:28:12.739Z,7240
2017-07-08T09:29:12.744Z,7276
2017-07-08T09:30:13.962Z,7260
2017-07-08T09:31:13.400Z,7240
2017-07-08T09:32:13.096Z,7284
2017-07-08T09:33:13.099Z,7300
2017-07-08T09:34:13.439Z,7364
2017-07-08T09:35:14.935Z,7312
2017-07-08T09:36:18.447Z,7304
2017-07-08T09:37:13.141Z,7312
2017-07-08T09:38:13.465Z,7312
2017-07-08T09:39:13.153Z,7300
2017-07-08T09:40:13.094Z,7372
2017-07-08T09:41:13.179Z,7416
2017-07-08T09:42:13.506Z,7412
2017-07-08T09:43:13.198Z,5188
2017-07-08T09:44:13.517Z,5016
2017-07-08T09:45:14.887Z,6736
2017-07-08T09:46:13.215Z,7924
2017-07-08T09:47:13.230Z,8292
2017-07-08T09:48:13.538Z,8604
2017-07-08T09:49:13.236Z,8500
2017-07-08T09:50:13.977Z,6696
2017-07-08T09:51:13.051Z,6612
2017-07-08T09:52:13.283Z,7100
2017-07-08T09:53:12.948Z,7320
2017-07-08T09:54:12.959Z,7280
2017-07-08T09:55:14.506Z,7128
2017-07-08T09:56:13.636Z,6928
2017-07-08T09:57:12.995Z,6668
2017-07-08T09:58:13.341Z,6916
2017-07-08T09:59:13.464Z,6084
2017-07-08T10:00:14.284Z,5236
2017-07-08T10:01:13.368Z,4648
2017-07-08T10:02:13.414Z,4424
2017-07-08T10:03:13.421Z,4536
2017-07-08T10:04:13.355Z,4892
2017-07-08T10:05:14.627Z,5236
2017-07-08T10:06:16.652Z,5508
2017-07-08T10:07:13.397Z,5708
2017-07-08T10:08:13.392Z,5676
2017-07-08T10:09:13.726Z,5756
2017-07-08T10:10:15.158Z,5772
2017-07-08T10:11:13.430Z,5952
2017-07-08T10:12:13.746Z,8192
2017-07-08T10:13:12.793Z,8256
2017-07-08T10:14:13.108Z,8516
2017-07-08T10:15:15.475Z,8476
2017-07-08T10:16:13.770Z,8372
2017-07-08T10:17:13.458Z,8168
2017-07-08T10:18:13.157Z,7388
2017-07-08T10:19:13.214Z,6208
2017-07-08T10:20:14.592Z,6516
2017-07-08T10:21:13.815Z,7540
2017-07-08T10:22:16.199Z,6616
2017-07-08T10:23:13.185Z,6752
2017-07-08T10:24:13.834Z,8916
2017-07-08T10:25:14.766Z,8780
2017-07-08T10:26:13.902Z,8648
2017-07-08T10:27:13.266Z,7692
2017-07-08T10:28:13.866Z,7444
2017-07-08T10:29:13.585Z,6740
2017-07-08T10:30:14.829Z,7368
2017-07-08T10:31:13.573Z,6072
2017-07-08T10:32:13.926Z,5904
2017-07-08T10:33:13.302Z,5816
2017-07-08T10:34:13.302Z,5852
2017-07-08T10:35:15.136Z,5928
2017-07-08T10:36:13.955Z,6368
2017-07-08T10:37:14.421Z,6776
2017-07-08T10:38:13.319Z,7084
2017-07-08T10:39:13.338Z,7416
2017-07-08T10:40:14.384Z,9756
2017-07-08T10:41:13.350Z,9572
2017-07-08T10:42:14.016Z,9184
2017-07-08T10:43:13.701Z,8784
2017-07-08T10:44:14.019Z,8508
2017-07-08T10:45:15.354Z,8384
2017-07-08T10:46:13.745Z,8312
2017-07-08T10:47:13.081Z,7580
2017-07-08T10:48:15.208Z,8340
2017-07-08T10:49:14.325Z,8332
2017-07-08T10:50:14.975Z,8392
2017-07-08T10:51:14.392Z,8176
2017-07-08T10:52:16.735Z,8852
2017-07-08T10:53:14.839Z,8820
2017-07-08T10:54:14.867Z,8800
2017-07-08T10:55:15.303Z,8992
2017-07-08T10:56:15.221Z,9468
2017-07-08T10:57:13.812Z,9824
2017-07-08T10:58:13.858Z,10044
2017-07-08T10:59:13.482Z,10212
2017-07-08T11:00:15.425Z,10420
2017-07-08T11:01:13.880Z,10516
2017-07-08T11:02:13.908Z,10748
2017-07-08T11:03:13.897Z,11116
2017-07-08T11:04:14.160Z,11468
2017-07-08T11:05:14.857Z,11728
2017-07-08T11:06:13.873Z,11836
2017-07-08T11:07:13.897Z,11744
2017-07-08T11:08:13.560Z,11556
2017-07-08T11:09:13.570Z,11684
2017-07-08T11:10:15.815Z,10100
2017-07-08T11:11:14.228Z,11020
2017-07-08T11:12:13.912Z,12372
2017-07-08T11:13:13.614Z,12204
2017-07-08T11:14:13.628Z,11908
2017-07-08T11:15:14.851Z,11788
2017-07-08T11:16:13.311Z,11544
2017-07-08T11:17:13.638Z,11288
2017-07-08T11:18:13.660Z,11048
2017-07-08T11:19:13.980Z,9792
2017-07-08T11:20:14.936Z,9084
2017-07-08T11:21:13.992Z,8660
2017-07-08T11:22:13.369Z,8404
2017-07-08T11:23:17.681Z,8172
2017-07-08T11:24:14.053Z,8044
2017-07-08T11:25:40.169Z,7996
2017-07-08T11:26:14.039Z,7720
2017-07-08T11:27:14.372Z,7320
2017-07-08T11:28:14.054Z,7216
2017-07-08T11:29:13.755Z,6956
2017-07-08T11:30:15.456Z,6620
2017-07-08T11:31:14.081Z,6236
2017-07-08T11:32:13.457Z,5704
2017-07-08T11:33:14.418Z,5308
2017-07-08T11:34:13.483Z,5096
2017-07-08T11:35:15.277Z,4732
2017-07-08T11:36:14.457Z,4516
2017-07-08T11:37:13.494Z,4364
2017-07-08T11:38:16.211Z,4460
2017-07-08T11:39:14.149Z,4720
2017-07-08T11:40:15.042Z,5264
2017-07-08T11:41:13.940Z,5980
2017-07-08T11:42:14.500Z,6656
2017-07-08T11:43:14.201Z,6716
2017-07-08T11:44:14.573Z,6724
2017-07-08T11:45:15.933Z,6740
2017-07-08T11:46:14.270Z,6704
2017-07-08T11:47:13.592Z,6548
2017-07-08T11:48:13.905Z,6400
2017-07-08T11:49:14.240Z,6468
2017-07-08T11:50:15.402Z,6124
2017-07-08T11:51:14.262Z,5996
2017-07-08T11:52:14.262Z,5876
2017-07-08T11:53:13.622Z,5572
2017-07-08T11:54:14.299Z,5248
2017-07-08T11:55:15.807Z,4820
2017-07-08T11:56:14.341Z,4580
2017-07-08T11:57:14.298Z,4380
2017-07-08T11:58:14.309Z,4188
2017-07-08T11:59:14.327Z,4064
2017-07-08T12:00:15.806Z,3996
2017-07-08T12:01:14.356Z,4076
2017-07-08T12:02:14.017Z,4256
2017-07-08T12:03:14.341Z,4440
2017-07-08T12:04:14.688Z,4792
2017-07-08T12:05:15.001Z,5284
2017-07-08T12:06:14.367Z,5756
2017-07-08T12:07:14.702Z,6252
2017-07-08T12:08:14.717Z,7100
2017-07-08T12:09:14.724Z,8612
2017-07-08T12:10:15.860Z,9220
2017-07-08T12:11:14.092Z,9900
2017-07-08T12:12:13.774Z,9476
2017-07-08T12:13:14.102Z,10804
2017-07-08T12:14:14.433Z,10408
2017-07-08T12:15:15.625Z,11216
2017-07-08T12:16:14.123Z,11712
2017-07-08T12:17:14.458Z,11380
2017-07-08T12:18:14.476Z,12068
2017-07-08T12:19:14.947Z,11908
2017-07-08T12:20:15.808Z,11556
2017-07-08T12:21:14.498Z,11124
2017-07-08T12:22:14.810Z,10416
2017-07-08T12:23:14.212Z,9516
2017-07-08T12:24:18.821Z,8340
2017-07-08T12:25:15.253Z,7768
2017-07-08T12:26:14.215Z,7812
2017-07-08T12:27:14.216Z,7684
2017-07-08T12:28:14.235Z,7504
2017-07-08T12:29:14.589Z,7220
2017-07-08T12:30:15.928Z,6984
2017-07-08T12:31:14.581Z,6828
2017-07-08T12:32:14.587Z,6708
2017-07-08T12:33:14.592Z,6532
2017-07-08T12:34:14.283Z,6336
2017-07-08T12:35:15.513Z,6240
2017-07-08T12:36:14.951Z,6288
2017-07-08T12:37:14.307Z,6492
2017-07-08T12:38:14.970Z,6532
2017-07-08T12:39:15.635Z,6376
2017-07-08T12:40:16.378Z,6248
2017-07-08T12:41:14.406Z,6420
2017-07-08T12:42:15.006Z,6760
2017-07-08T12:43:14.691Z,7084
2017-07-08T12:44:14.046Z,7288
2017-07-08T12:45:16.321Z,7348
2017-07-08T12:46:14.370Z,7336
2017-07-08T12:47:14.386Z,7284
2017-07-08T12:48:14.894Z,7216
2017-07-08T12:49:14.407Z,7136
2017-07-08T12:50:15.793Z,7072
2017-07-08T12:51:14.435Z,7004
2017-07-08T12:52:14.484Z,6880
2017-07-08T12:53:14.773Z,6636
2017-07-08T12:54:14.452Z,6408
2017-07-08T12:55:16.069Z,6196
2017-07-08T12:56:14.160Z,5952
2017-07-08T12:57:14.513Z,5596
2017-07-08T12:58:14.820Z,5208
2017-07-08T12:59:14.821Z,4932
2017-07-08T13:00:16.283Z,4772
2017-07-08T13:01:14.540Z,4772
2017-07-08T13:02:15.180Z,4824
2017-07-08T13:03:14.870Z,4920
2017-07-08T13:04:14.616Z,5064
2017-07-08T13:05:16.104Z,5136
2017-07-08T13:06:14.234Z,5212
2017-07-08T13:07:14.566Z,5352
2017-07-08T13:08:14.570Z,5556
2017-07-08T13:09:14.932Z,5836
2017-07-08T13:10:16.709Z,6184
2017-07-08T13:11:14.928Z,6512
2017-07-08T13:12:15.268Z,6800
2017-07-08T13:13:15.269Z,7024
2017-07-08T13:14:14.939Z,7252
2017-07-08T13:15:16.078Z,7568
2017-07-08T13:16:14.964Z,8432
2017-07-08T13:17:14.966Z,10092
2017-07-08T13:18:15.289Z,10412
2017-07-08T13:19:15.030Z,10096
2017-07-08T13:20:16.048Z,8580
2017-07-08T13:21:14.689Z,7932
2017-07-08T13:22:14.703Z,7468
2017-07-08T13:23:14.716Z,7272
2017-07-08T13:24:15.334Z,6928
2017-07-08T13:25:20.799Z,6632
2017-07-08T13:26:15.373Z,6368
2017-07-08T13:27:14.736Z,6188
2017-07-08T13:28:15.392Z,6052
2017-07-08T13:29:15.064Z,5976
2017-07-08T13:30:15.583Z,5936
2017-07-08T13:31:15.075Z,5956
2017-07-08T13:32:15.461Z,6040
2017-07-08T13:33:14.774Z,6096
2017-07-08T13:34:15.095Z,6156
2017-07-08T13:35:16.609Z,6128
2017-07-08T13:36:15.440Z,5968
2017-07-08T13:37:15.118Z,5824
2017-07-08T13:38:15.454Z,5684
2017-07-08T13:39:15.130Z,5604
2017-07-08T13:40:16.316Z,5588
2017-07-08T13:41:14.848Z,5600
2017-07-08T13:42:15.477Z,5728
2017-07-08T13:43:15.492Z,5776
2017-07-08T13:44:14.852Z,5832
2017-07-08T13:45:16.433Z,5996
2017-07-08T13:46:15.188Z,6168
2017-07-08T13:47:14.869Z,6228
2017-07-08T13:48:14.903Z,6212
2017-07-08T13:49:14.890Z,6148
2017-07-08T13:50:16.333Z,6068
2017-07-08T13:51:14.920Z,6200
2017-07-08T13:52:15.226Z,6216
2017-07-08T13:53:14.918Z,6124
2017-07-08T13:54:15.569Z,6692
2017-07-08T13:55:16.408Z,6828
2017-07-08T13:56:15.260Z,6956
2017-07-08T13:57:15.591Z,6700
2017-07-08T13:58:15.284Z,6792
2017-07-08T13:59:14.973Z,6588
2017-07-08T14:00:16.731Z,7060
2017-07-08T14:01:15.301Z,7032
2017-07-08T14:02:15.315Z,7072
2017-07-08T14:03:15.323Z,7132
2017-07-08T14:04:15.684Z,7112
2017-07-08T14:05:16.015Z,7068
2017-07-08T14:06:15.690Z,6988
2017-07-08T14:07:15.450Z,6892
2017-07-08T14:08:15.038Z,6792
2017-07-08T14:09:15.043Z,6708
2017-07-08T14:10:16.720Z,6664
2017-07-08T14:11:15.107Z,6612
2017-07-08T14:12:15.736Z,6556
2017-07-08T14:13:15.436Z,6512
2017-07-08T14:14:15.726Z,6480
2017-07-08T14:15:16.778Z,6404
2017-07-08T14:16:16.716Z,6216
2017-07-08T14:17:15.427Z,6028
2017-07-08T14:18:15.450Z,5780
2017-07-08T14:19:15.197Z,6164
2017-07-08T14:20:16.614Z,6120
2017-07-08T14:21:15.535Z,6196
2017-07-08T14:22:15.799Z,6228
2017-07-08T14:23:15.477Z,6268
2017-07-08T14:24:14.869Z,6256
2017-07-08T14:25:17.379Z,6240
2017-07-08T14:26:15.293Z,6264
2017-07-08T14:27:15.831Z,6340
2017-07-08T14:28:15.546Z,6436
2017-07-08T14:29:15.555Z,6536
2017-07-08T14:30:16.638Z,6696
2017-07-08T14:31:15.547Z,6876
2017-07-08T14:32:15.885Z,7056
2017-07-08T14:33:15.641Z,7228
2017-07-08T14:34:15.557Z,7368
2017-07-08T14:35:17.325Z,7508
2017-07-08T14:36:14.949Z,7640
2017-07-08T14:37:15.602Z,7824
2017-07-08T14:38:15.266Z,8060
2017-07-08T14:39:15.601Z,8348
2017-07-08T14:40:17.173Z,8652
2017-07-08T14:41:16.672Z,8836
2017-07-08T14:42:15.656Z,8908
2017-07-08T14:43:15.963Z,8948
2017-07-08T14:44:15.641Z,8920
2017-07-08T14:45:17.479Z,8800
2017-07-08T14:46:15.754Z,8668
2017-07-08T14:47:16.038Z,8536
2017-07-08T14:48:15.365Z,8384
2017-07-08T14:49:16.021Z,8164
2017-07-08T14:50:17.152Z,8188
2017-07-08T14:51:15.694Z,8340
2017-07-08T14:52:15.708Z,8032
2017-07-08T14:53:16.040Z,7440
2017-07-08T14:54:15.739Z,7316
2017-07-08T14:55:17.391Z,7548
2017-07-08T14:56:20.182Z,7724
2017-07-08T14:57:15.915Z,7892
2017-07-08T14:58:15.749Z,8032
2017-07-08T14:59:15.763Z,8032
2017-07-08T15:00:16.968Z,8112
2017-07-08T15:01:15.783Z,7924
2017-07-08T15:02:15.792Z,8424
2017-07-08T15:03:16.134Z,9800
2017-07-08T15:04:15.804Z,9832
2017-07-08T15:05:16.994Z,9540
2017-07-08T15:06:15.836Z,8988
2017-07-08T15:07:15.846Z,8416
2017-07-08T15:08:15.847Z,8144
2017-07-08T15:09:16.165Z,8016
2017-07-08T15:10:17.432Z,8312
2017-07-08T15:11:15.867Z,8724
2017-07-08T15:12:16.242Z,8740
2017-07-08T15:13:15.559Z,8376
2017-07-08T15:14:16.219Z,8464
2017-07-08T15:44:36.437Z,6248
2017-07-08T15:45:33.737Z,6184
2017-07-08T15:46:33.739Z,5620
2017-07-08T15:47:34.078Z,5612
2017-07-08T15:48:34.389Z,5020
2017-07-08T15:49:34.090Z,5136
2017-07-08T15:50:34.396Z,5880
2017-07-08T15:51:33.768Z,5416
2017-07-08T15:52:34.102Z,6016
2017-07-08T15:53:34.104Z,6092
2017-07-08T15:54:33.787Z,6000
2017-07-08T15:55:34.432Z,5136
2017-07-08T15:56:34.121Z,4844
2017-07-08T15:57:34.135Z,4580
2017-07-08T15:58:34.129Z,4600
2017-07-08T15:59:38.210Z,4952
2017-07-08T16:00:33.827Z,5336
2017-07-08T16:01:34.159Z,5304
2017-07-08T16:02:34.158Z,5076
2017-07-08T16:03:34.493Z,5128
2017-07-08T16:04:33.867Z,5220
2017-07-08T16:05:33.858Z,5284
2017-07-08T16:06:34.522Z,5356
2017-07-08T16:07:34.201Z,5412
2017-07-08T16:08:34.526Z,5188
2017-07-08T16:09:33.889Z,5000
2017-07-08T16:10:34.236Z,4936
2017-07-08T16:11:33.909Z,5248
2017-07-08T16:12:34.567Z,5152
2017-07-08T16:13:34.267Z,5436
2017-07-08T16:14:34.255Z,5504
2017-07-08T16:15:33.938Z,5720
2017-07-08T16:16:33.622Z,5604
2017-07-08T16:17:34.273Z,5548
2017-07-08T16:18:33.642Z,5472
2017-07-08T16:19:34.607Z,5872
2017-07-08T16:20:34.626Z,6236
2017-07-08T16:21:34.304Z,6268
2017-07-08T16:22:33.997Z,5524
2017-07-08T16:23:34.707Z,5924
2017-07-08T16:24:34.432Z,6188
2017-07-08T16:25:34.011Z,6232
2017-07-08T16:26:34.343Z,6272
2017-07-08T16:27:34.061Z,6276
2017-07-08T16:28:34.363Z,6280
2017-07-08T16:29:34.376Z,6208
2017-07-08T16:30:35.722Z,6100
2017-07-08T16:31:34.392Z,5996
2017-07-08T16:32:34.070Z,5820
2017-07-08T16:33:34.395Z,5800
2017-07-08T16:34:34.736Z,5840
2017-07-08T16:35:34.733Z,6016
2017-07-08T16:36:34.747Z,6216
2017-07-08T16:37:34.756Z,6516
2017-07-08T16:38:34.119Z,6880
2017-07-08T16:39:34.453Z,7044
2017-07-08T16:40:34.469Z,6996
2017-07-08T16:41:34.469Z,6784
2017-07-08T16:42:34.476Z,6492
2017-07-08T16:43:34.158Z,6172
2017-07-08T16:44:34.484Z,5920
2017-07-08T16:45:36.760Z,5832
2017-07-08T16:46:34.523Z,5748
2017-07-08T16:47:34.838Z,5608
2017-07-08T16:48:34.846Z,5576
2017-07-08T16:49:34.543Z,5656
2017-07-08T16:50:34.855Z,5764
2017-07-08T16:51:34.877Z,5960
2017-07-08T16:52:34.547Z,6132
2017-07-08T16:53:34.558Z,6192
2017-07-08T16:54:34.564Z,6076
2017-07-08T16:55:34.252Z,6136
2017-07-08T16:56:34.597Z,6228
2017-07-08T16:57:34.913Z,6200
2017-07-08T16:58:34.287Z,6132
2017-07-08T16:59:33.961Z,5960
2017-07-08T17:00:36.149Z,5896
2017-07-08T17:01:34.326Z,5800
2017-07-08T17:02:34.628Z,5772
2017-07-08T17:03:34.958Z,5752
2017-07-08T17:04:34.326Z,5780
2017-07-08T17:05:34.660Z,5816
2017-07-08T17:06:34.337Z,5864
2017-07-08T17:07:34.023Z,5916
2017-07-08T17:08:34.357Z,5916
2017-07-08T17:09:34.685Z,5808
2017-07-08T17:10:34.699Z,5800
2017-07-08T17:11:34.703Z,5748
2017-07-08T17:12:35.031Z,5768
2017-07-08T17:13:34.395Z,5788
2017-07-08T17:14:34.403Z,5864
2017-07-08T17:15:34.729Z,5952
2017-07-08T17:16:34.737Z,5956
2017-07-08T17:17:34.746Z,6000
2017-07-08T17:18:35.090Z,6140
2017-07-08T17:19:34.769Z,6148
2017-07-08T17:20:35.101Z,6172
2017-07-08T17:21:35.110Z,6176
2017-07-08T17:22:34.469Z,6188
2017-07-08T17:23:34.799Z,6144
2017-07-08T17:24:34.806Z,6096
2017-07-08T17:25:34.819Z,5988
2017-07-08T17:26:34.519Z,5848
2017-07-08T17:27:34.829Z,5932
2017-07-08T17:28:34.837Z,5908
2017-07-08T17:29:34.853Z,5796
2017-07-08T17:30:34.529Z,5420
2017-07-08T17:31:37.420Z,5356
2017-07-08T17:32:34.872Z,5052
2017-07-08T17:33:34.577Z,5012
2017-07-08T17:34:34.569Z,5176
2017-07-08T17:35:34.890Z,5244
2017-07-08T17:36:35.217Z,5232
2017-07-08T17:37:34.912Z,5268
2017-07-08T17:38:35.239Z,5332
2017-07-08T17:39:34.929Z,5300
2017-07-08T17:40:34.612Z,5220
2017-07-08T17:41:34.948Z,5064
2017-07-08T17:42:35.266Z,4888
2017-07-08T17:43:35.275Z,4696
2017-07-08T17:44:35.286Z,4516
2017-07-08T17:45:35.303Z,4368
2017-07-08T17:46:35.233Z,4296
2017-07-08T17:47:34.745Z,4192
2017-07-08T17:48:35.074Z,4048
2017-07-08T17:49:35.328Z,4000
2017-07-08T17:50:34.686Z,4016
2017-07-08T17:51:34.901Z,4084
2017-07-08T17:52:35.399Z,4012
2017-07-08T17:53:35.415Z,4052
2017-07-08T17:54:34.719Z,3988
2017-07-08T17:55:34.721Z,3924
2017-07-08T17:56:35.106Z,3828
2017-07-08T17:57:34.738Z,3792
2017-07-08T17:58:34.428Z,3736
2017-07-08T17:59:35.423Z,3604
2017-07-08T18:00:34.456Z,3624
2017-07-08T18:01:36.001Z,3564
2017-07-08T18:02:35.117Z,3576
2017-07-08T18:04:00.622Z,3624
2017-07-08T18:04:35.437Z,3684
2017-07-08T18:05:34.800Z,3600
2017-07-08T18:06:34.806Z,3552
2017-07-08T18:07:35.169Z,3492
2017-07-08T18:08:34.832Z,3448
2017-07-08T18:09:35.173Z,3348
2017-07-08T18:10:35.478Z,3124
2017-07-08T18:11:35.168Z,2968
2017-07-08T18:12:35.501Z,2896
2017-07-08T18:13:34.859Z,2788
2017-07-08T18:14:34.868Z,2672
2017-07-08T18:15:34.878Z,2564
2017-07-08T18:16:35.216Z,2528
2017-07-08T18:17:37.484Z,2508
2017-07-08T18:18:35.221Z,2488
2017-07-08T18:19:34.904Z,2440
2017-07-08T18:20:35.242Z,2408
2017-07-08T18:21:34.600Z,2336
2017-07-08T18:22:35.563Z,2296
2017-07-08T18:23:35.574Z,2296
2017-07-08T18:24:34.998Z,2304
2017-07-08T18:25:35.014Z,2296
2017-07-08T18:26:34.651Z,2292
2017-07-08T18:27:35.005Z,2276
2017-07-08T18:28:35.632Z,2224
2017-07-08T18:29:34.774Z,2120
2017-07-08T18:30:35.402Z,2020
2017-07-08T18:31:35.631Z,1972
2017-07-08T18:32:35.483Z,1944
2017-07-08T18:33:35.334Z,1908
2017-07-08T18:34:35.332Z,1868
2017-07-08T18:35:35.025Z,1816
2017-07-08T18:36:35.366Z,1788
2017-07-08T18:37:34.720Z,1752
2017-07-08T18:38:35.056Z,1716
2017-07-08T18:39:35.061Z,1680
2017-07-08T18:40:35.800Z,1636
2017-07-08T18:41:35.453Z,1612
2017-07-08T18:42:35.125Z,1592
2017-07-08T18:43:35.723Z,1552
2017-07-08T18:44:35.405Z,1524
2017-07-08T18:45:35.456Z,1504
2017-07-08T18:46:35.134Z,1512
2017-07-08T18:47:35.990Z,1544
2017-07-08T18:48:34.805Z,1608
2017-07-08T18:49:35.125Z,1616
2017-07-08T18:50:35.124Z,1576
2017-07-08T18:51:34.817Z,1496
2017-07-08T18:52:35.142Z,1416
2017-07-08T18:53:35.145Z,1332
2017-07-08T18:54:35.541Z,1260
2017-07-08T18:55:35.551Z,1188
2017-07-08T18:56:35.492Z,1120
2017-07-08T18:57:35.553Z,1068
2017-07-08T18:58:35.186Z,1012
2017-07-08T18:59:35.284Z,964
2017-07-08T19:00:35.189Z,912
2017-07-08T19:01:34.878Z,872
2017-07-08T19:02:35.503Z,828
2017-07-08T19:03:35.533Z,780
2017-07-08T19:04:35.862Z,732
2017-07-08T19:05:35.226Z,692
2017-07-08T19:06:35.552Z,656
2017-07-08T19:07:34.918Z,624
2017-07-08T19:08:34.929Z,596
2017-07-08T19:09:35.252Z,568
2017-07-08T19:10:35.898Z,528
2017-07-08T19:11:34.945Z,496
2017-07-08T19:12:35.592Z,456
2017-07-08T19:13:35.926Z,424
2017-07-08T19:14:35.287Z,392
2017-07-08T19:15:35.299Z,360
2017-07-08T19:16:35.718Z,332
2017-07-08T19:17:37.493Z,304
2017-07-08T19:18:35.949Z,276
2017-07-08T19:19:35.634Z,256
2017-07-08T19:20:35.328Z,236
2017-07-08T19:21:35.650Z,220
2017-07-08T19:22:35.010Z,204
2017-07-08T19:23:35.036Z,188
2017-07-08T19:24:35.999Z,176
2017-07-08T19:25:35.677Z,160
2017-07-08T19:26:36.002Z,148
2017-07-08T19:27:35.693Z,136
2017-07-08T19:28:35.378Z,124
2017-07-08T19:29:35.056Z,112
2017-07-08T19:30:35.388Z,104
2017-07-08T19:31:36.036Z,96
2017-07-08T19:32:39.400Z,84
2017-07-08T19:33:35.740Z,80
2017-07-08T19:34:35.431Z,72
2017-07-08T19:35:35.752Z,64
2017-07-08T19:36:35.747Z,56
2017-07-08T19:37:35.427Z,48
2017-07-08T19:38:35.440Z,44
2017-07-08T19:39:35.783Z,40
2017-07-08T19:40:35.454Z,36
2017-07-08T19:41:36.097Z,32
2017-07-08T19:42:36.104Z,28
2017-07-08T19:43:35.795Z,24
2017-07-08T19:44:35.796Z,24
2017-07-08T19:45:35.812Z,20
2017-07-08T19:46:35.806Z,16
2017-07-08T19:47:35.486Z,16
2017-07-08T19:48:38.900Z,12
2017-07-08T19:49:35.560Z,12
2017-07-08T19:50:35.523Z,12
2017-07-08T19:51:35.832Z,8
2017-07-08T19:52:35.526Z,8
2017-07-08T19:53:35.524Z,8
2017-07-08T19:54:35.552Z,4
2017-07-08T19:55:35.216Z,4
2017-07-08T19:56:35.869Z,8
2017-07-08T19:57:35.874Z,4
2017-07-08T19:58:35.681Z,4
2017-07-08T19:59:36.246Z,4
2017-07-08T20:00:35.947Z,4
2017-07-08T20:01:36.005Z,4
2017-07-08T20:02:35.615Z,4
2017-07-08T20:03:36.849Z,4
2017-07-08T20:04:36.242Z,4
2017-07-08T20:05:35.953Z,4
2017-07-08T20:06:35.937Z,0
2017-07-08T20:07:35.965Z,0
2017-07-08T20:08:35.743Z,0
2017-07-08T20:09:36.253Z,4
2017-07-08T20:10:35.973Z,4
2017-07-08T20:11:35.642Z,4
2017-07-08T20:12:35.685Z,0
2017-07-08T20:13:36.309Z,0
2017-07-08T20:14:36.009Z,0
2017-07-08T20:15:35.365Z,0
2017-07-08T20:16:35.716Z,0
2017-07-08T20:17:35.423Z,0
2017-07-08T20:18:36.836Z,0
2017-07-08T20:19:35.787Z,0
